createdAt,value
2017-06-26T00:00:09.686Z,21.00
2017-06-26T00:02:38.010Z,21.00
2017-06-26T00:05:06.302Z,21.00
2017-06-26T00:07:34.620Z,21.10
2017-06-26T00:10:02.935Z,21.00
2017-06-26T00:12:31.226Z,21.00
2017-06-26T00:14:59.554Z,20.90
2017-06-26T00:17:27.842Z,21.00
2017-06-26T00:19:56.136Z,21.10
2017-06-26T00:22:24.566Z,21.10
2017-06-26T00:24:53.711Z,21.10
2017-06-26T00:27:22.038Z,21.10
2017-06-26T00:29:51.197Z,20.90
2017-06-26T00:32:19.582Z,20.90
2017-06-26T00:34:47.881Z,20.80
2017-06-26T00:37:16.164Z,20.90
2017-06-26T00:39:44.472Z,20.80
2017-06-26T00:42:12.769Z,20.80
2017-06-26T00:44:41.161Z,20.70
2017-06-26T00:47:10.230Z,20.70
2017-06-26T00:49:38.562Z,20.70
2017-06-26T00:52:06.865Z,20.70
2017-06-26T00:54:35.193Z,20.70
2017-06-26T00:57:04.253Z,20.60
2017-06-26T00:59:32.573Z,20.60
2017-06-26T01:02:00.933Z,20.60
2017-06-26T01:04:30.050Z,20.60
2017-06-26T01:06:58.369Z,20.60
2017-06-26T01:09:26.653Z,20.50
2017-06-26T01:11:54.974Z,20.50
2017-06-26T01:14:24.062Z,20.30
2017-06-26T01:16:53.121Z,20.30
2017-06-26T01:19:21.472Z,20.30
2017-06-26T01:21:49.755Z,20.30
2017-06-26T01:24:18.040Z,20.30
2017-06-26T01:26:46.421Z,20.30
2017-06-26T01:29:14.762Z,20.30
2017-06-26T01:31:43.057Z,20.30
2017-06-26T01:34:11.442Z,20.30
2017-06-26T01:36:39.729Z,20.30
2017-06-26T01:39:08.095Z,20.30
2017-06-26T01:41:36.463Z,20.30
2017-06-26T01:44:04.753Z,20.30
2017-06-26T01:46:33.037Z,20.20
2017-06-26T01:49:01.368Z,20.20
2017-06-26T01:51:30.420Z,20.10
2017-06-26T01:53:58.709Z,20.10
2017-06-26T01:56:27.065Z,20.10
2017-06-26T01:58:55.353Z,20.10
2017-06-26T02:01:24.413Z,19.90
2017-06-26T02:03:52.736Z,19.90
2017-06-26T02:06:21.022Z,19.90
2017-06-26T02:08:49.321Z,19.90
2017-06-26T02:11:17.640Z,19.90
2017-06-26T02:13:45.924Z,20.00
2017-06-26T02:16:15.017Z,19.90
2017-06-26T02:18:44.072Z,19.80
2017-06-26T02:21:12.369Z,19.80
2017-06-26T02:23:40.703Z,19.90
2017-06-26T02:26:08.990Z,19.90
2017-06-26T02:28:37.273Z,19.90
2017-06-26T02:31:05.593Z,20.00
2017-06-26T02:33:33.884Z,20.00
2017-06-26T02:36:02.945Z,20.10
2017-06-26T02:38:31.261Z,20.10
2017-06-26T02:41:00.353Z,20.10
2017-06-26T02:43:29.400Z,20.00
2017-06-26T02:45:57.690Z,20.00
2017-06-26T02:48:26.128Z,20.00
2017-06-26T02:50:54.416Z,20.00
2017-06-26T02:53:22.705Z,19.90
2017-06-26T02:55:51.104Z,19.90
2017-06-26T02:58:19.632Z,19.80
2017-06-26T03:00:47.945Z,19.80
2017-06-26T03:03:16.296Z,19.80
2017-06-26T03:05:44.582Z,19.80
2017-06-26T03:08:12.898Z,19.70
2017-06-26T03:10:41.233Z,19.70
2017-06-26T03:13:09.522Z,19.60
2017-06-26T03:15:37.811Z,19.60
2017-06-26T03:18:06.150Z,19.60
2017-06-26T03:20:35.301Z,19.60
2017-06-26T03:23:03.587Z,19.60
2017-06-26T03:25:31.952Z,19.60
2017-06-26T03:28:00.240Z,19.60
2017-06-26T03:30:28.538Z,19.60
2017-06-26T03:32:56.864Z,19.60
2017-06-26T03:35:25.144Z,19.50
2017-06-26T03:37:53.424Z,19.50
2017-06-26T03:40:22.518Z,19.50
2017-06-26T03:42:50.801Z,19.50
2017-06-26T03:45:19.857Z,19.50
2017-06-26T03:47:48.189Z,19.40
2017-06-26T03:50:16.482Z,19.40
2017-06-26T03:52:44.781Z,19.50
2017-06-26T03:55:13.094Z,19.50
2017-06-26T03:57:41.376Z,19.50
2017-06-26T04:00:09.709Z,19.40
2017-06-26T04:02:37.990Z,19.40
2017-06-26T04:05:06.278Z,19.50
2017-06-26T04:07:34.645Z,19.50
2017-06-26T04:10:02.930Z,19.50
2017-06-26T04:12:31.236Z,19.40
2017-06-26T04:14:59.569Z,19.40
2017-06-26T04:17:27.857Z,19.50
2017-06-26T04:19:56.149Z,19.50
2017-06-26T04:22:24.486Z,19.60
2017-06-26T04:24:52.801Z,19.60
2017-06-26T04:27:21.102Z,19.60
2017-06-26T04:29:49.426Z,19.60
2017-06-26T04:32:17.713Z,19.80
2017-06-26T04:34:46.029Z,19.80
2017-06-26T04:37:14.408Z,19.70
2017-06-26T04:39:42.699Z,19.70
2017-06-26T04:42:11.748Z,19.70
2017-06-26T04:44:40.077Z,19.70
2017-06-26T04:47:09.153Z,19.80
2017-06-26T04:49:37.446Z,19.80
2017-06-26T04:52:06.539Z,19.80
2017-06-26T04:54:34.879Z,19.80
2017-06-26T04:57:03.189Z,19.90
2017-06-26T04:59:31.472Z,19.80
2017-06-26T05:01:59.793Z,19.80
2017-06-26T05:04:28.128Z,19.90
2017-06-26T05:06:56.445Z,20.00
2017-06-26T05:09:24.756Z,20.00
2017-06-26T05:11:53.044Z,20.10
2017-06-26T05:14:21.378Z,20.20
2017-06-26T05:16:49.676Z,20.30
2017-06-26T05:19:18.009Z,20.40
2017-06-26T05:21:46.314Z,20.60
2017-06-26T05:24:14.606Z,20.60
2017-06-26T05:26:42.931Z,20.70
2017-06-26T05:29:11.981Z,20.90
2017-06-26T05:31:40.266Z,20.80
2017-06-26T05:34:08.585Z,20.90
2017-06-26T05:36:37.684Z,21.80
2017-06-26T05:39:06.737Z,23.50
2017-06-26T05:41:35.836Z,24.90
2017-06-26T05:44:04.890Z,25.70
2017-06-26T05:46:33.184Z,25.70
2017-06-26T05:49:01.518Z,25.70
2017-06-26T05:51:30.573Z,24.80
2017-06-26T05:53:58.894Z,24.80
2017-06-26T05:56:28.050Z,23.90
2017-06-26T05:58:56.380Z,23.90
2017-06-26T06:01:25.454Z,23.10
2017-06-26T06:03:54.617Z,22.90
2017-06-26T06:06:22.932Z,22.80
2017-06-26T06:08:51.301Z,22.70
2017-06-26T06:11:19.584Z,22.50
2017-06-26T06:13:47.877Z,22.30
2017-06-26T06:16:16.963Z,21.80
2017-06-26T06:18:46.017Z,22.90
2017-06-26T06:21:14.366Z,22.90
2017-06-26T06:23:43.484Z,26.50
2017-06-26T06:26:11.774Z,26.50
2017-06-26T06:28:40.061Z,28.30
2017-06-26T06:31:08.405Z,29.80
2017-06-26T06:33:36.721Z,31.10
2017-06-26T06:36:05.010Z,32.20
2017-06-26T06:38:34.109Z,33.30
2017-06-26T06:41:02.448Z,33.30
2017-06-26T06:43:30.728Z,34.00
2017-06-26T06:45:59.053Z,34.40
2017-06-26T06:48:28.107Z,34.70
2017-06-26T06:50:56.428Z,34.70
2017-06-26T06:53:24.766Z,34.90
2017-06-26T06:55:53.061Z,35.50
2017-06-26T06:58:21.430Z,35.90
2017-06-26T07:00:49.713Z,35.90
2017-06-26T07:03:18.078Z,34.30
2017-06-26T07:05:46.400Z,33.60
2017-06-26T07:08:14.692Z,32.90
2017-06-26T07:10:43.019Z,33.00
2017-06-26T07:13:11.306Z,33.50
2017-06-26T07:15:39.589Z,34.40
2017-06-26T07:18:08.669Z,34.60
2017-06-26T07:20:37.781Z,33.60
2017-06-26T07:23:06.849Z,32.90
2017-06-26T07:25:35.174Z,32.90
2017-06-26T07:28:03.468Z,31.90
2017-06-26T07:30:31.798Z,31.60
2017-06-26T07:33:00.091Z,31.70
2017-06-26T07:35:28.416Z,31.40
2017-06-26T07:37:56.705Z,30.70
2017-06-26T07:40:24.996Z,30.00
2017-06-26T07:42:53.313Z,30.00
2017-06-26T07:45:21.609Z,31.10
2017-06-26T07:47:49.925Z,32.30
2017-06-26T07:50:18.261Z,33.00
2017-06-26T07:52:46.565Z,33.10
2017-06-26T07:55:14.857Z,32.50
2017-06-26T07:57:43.202Z,31.30
2017-06-26T08:00:11.492Z,30.00
2017-06-26T08:02:39.782Z,29.00
2017-06-26T08:05:08.121Z,28.60
2017-06-26T08:07:36.445Z,28.70
2017-06-26T08:10:04.761Z,28.40
2017-06-26T08:12:33.094Z,27.80
2017-06-26T08:15:02.532Z,27.30
2017-06-26T08:17:31.700Z,27.90
2017-06-26T08:20:00.067Z,27.90
2017-06-26T08:22:28.354Z,29.10
2017-06-26T08:24:56.724Z,30.10
2017-06-26T08:27:25.009Z,30.90
2017-06-26T08:29:53.301Z,31.50
2017-06-26T08:32:21.836Z,32.10
2017-06-26T08:34:50.129Z,32.50
2017-06-26T08:37:18.439Z,32.60
2017-06-26T08:39:46.772Z,32.50
2017-06-26T08:42:15.065Z,32.50
2017-06-26T08:44:43.351Z,32.60
2017-06-26T08:47:11.673Z,33.10
2017-06-26T08:49:39.971Z,33.30
2017-06-26T08:52:08.252Z,33.60
2017-06-26T08:54:36.577Z,33.60
2017-06-26T08:57:04.868Z,33.60
2017-06-26T08:59:33.966Z,32.50
2017-06-26T09:02:02.257Z,32.50
2017-06-26T09:04:30.555Z,32.20
2017-06-26T09:06:58.889Z,32.20
2017-06-26T09:09:27.184Z,32.50
2017-06-26T09:11:56.246Z,32.90
2017-06-26T09:14:24.588Z,32.90
2017-06-26T09:16:52.870Z,32.70
2017-06-26T09:19:21.152Z,32.60
2017-06-26T09:21:49.479Z,32.50
2017-06-26T09:24:17.771Z,32.30
2017-06-26T09:26:46.829Z,31.40
2017-06-26T09:29:15.161Z,31.40
2017-06-26T09:31:43.453Z,31.20
2017-06-26T09:34:12.507Z,30.80
2017-06-26T09:36:40.839Z,30.80
2017-06-26T09:39:09.166Z,30.90
2017-06-26T09:41:37.455Z,30.70
2017-06-26T09:44:05.821Z,30.40
2017-06-26T09:46:34.104Z,30.30
2017-06-26T09:49:02.392Z,30.20
2017-06-26T09:51:30.735Z,30.30
2017-06-26T09:53:59.025Z,30.20
2017-06-26T09:56:27.321Z,29.80
2017-06-26T09:58:55.661Z,29.40
2017-06-26T10:01:23.953Z,29.40
2017-06-26T10:03:52.241Z,29.70
2017-06-26T10:06:20.557Z,29.80
2017-06-26T10:08:49.617Z,29.90
2017-06-26T10:11:17.941Z,29.90
2017-06-26T10:13:46.281Z,29.80
2017-06-26T10:16:14.568Z,29.60
2017-06-26T10:18:42.863Z,29.40
2017-06-26T10:21:11.956Z,29.50
2017-06-26T10:23:41.015Z,29.70
2017-06-26T10:26:09.317Z,29.60
2017-06-26T10:28:37.646Z,29.80
2017-06-26T10:31:05.936Z,29.90
2017-06-26T10:33:34.259Z,29.90
2017-06-26T10:36:03.388Z,29.60
2017-06-26T10:38:31.677Z,29.60
2017-06-26T10:40:59.977Z,29.50
2017-06-26T10:43:28.322Z,29.20
2017-06-26T10:45:56.628Z,29.10
2017-06-26T10:48:24.925Z,28.90
2017-06-26T10:50:53.264Z,28.90
2017-06-26T10:53:21.561Z,28.90
2017-06-26T10:55:49.960Z,29.00
2017-06-26T10:58:18.285Z,29.20
2017-06-26T11:00:46.584Z,29.40
2017-06-26T11:03:14.879Z,29.50
2017-06-26T11:05:43.508Z,29.20
2017-06-26T11:08:12.572Z,28.80
2017-06-26T11:10:40.870Z,28.80
2017-06-26T11:13:09.997Z,28.80
2017-06-26T11:15:38.281Z,28.80
2017-06-26T11:18:06.573Z,28.60
2017-06-26T11:20:34.918Z,28.60
2017-06-26T11:23:03.227Z,28.40
2017-06-26T11:25:31.517Z,28.30
2017-06-26T11:27:59.844Z,28.50
2017-06-26T11:30:28.137Z,28.70
2017-06-26T11:32:56.565Z,29.00
2017-06-26T11:35:24.920Z,29.10
2017-06-26T11:37:53.209Z,29.20
2017-06-26T11:40:21.538Z,29.40
2017-06-26T11:42:49.826Z,29.40
2017-06-26T11:45:18.138Z,29.40
2017-06-26T11:47:46.465Z,29.40
2017-06-26T11:50:14.785Z,29.40
2017-06-26T11:52:43.153Z,29.20
2017-06-26T11:55:11.439Z,29.20
2017-06-26T11:57:39.727Z,29.10
2017-06-26T12:00:08.048Z,29.20
2017-06-26T12:02:37.100Z,29.20
2017-06-26T12:05:05.412Z,29.10
2017-06-26T12:07:33.698Z,28.90
2017-06-26T12:10:02.038Z,28.70
2017-06-26T12:12:30.336Z,28.40
2017-06-26T12:14:58.625Z,28.30
2017-06-26T12:17:27.721Z,28.60
2017-06-26T12:19:56.778Z,28.70
2017-06-26T12:22:25.313Z,28.70
2017-06-26T12:24:53.607Z,29.10
2017-06-26T12:27:21.924Z,29.30
2017-06-26T12:29:50.262Z,29.50
2017-06-26T12:32:18.553Z,29.60
2017-06-26T12:34:46.853Z,29.40
2017-06-26T12:37:15.188Z,29.30
2017-06-26T12:39:43.480Z,29.00
2017-06-26T12:42:11.777Z,28.90
2017-06-26T12:44:40.100Z,28.80
2017-06-26T12:47:08.421Z,28.70
2017-06-26T12:49:36.709Z,28.70
2017-06-26T12:52:05.032Z,28.70
2017-06-26T12:54:33.313Z,28.50
2017-06-26T12:57:01.611Z,28.60
2017-06-26T12:59:29.956Z,28.70
2017-06-26T13:01:58.241Z,28.90
2017-06-26T13:04:26.532Z,29.00
2017-06-26T13:06:54.864Z,29.00
2017-06-26T13:09:23.154Z,29.00
2017-06-26T13:11:53.069Z,29.10
2017-06-26T13:14:21.360Z,29.10
2017-06-26T13:16:50.416Z,29.10
2017-06-26T13:19:19.510Z,29.00
2017-06-26T13:21:48.565Z,28.90
2017-06-26T13:24:16.884Z,28.90
2017-06-26T13:26:45.953Z,28.80
2017-06-26T13:29:14.281Z,28.70
2017-06-26T13:31:42.613Z,28.80
2017-06-26T13:34:10.908Z,28.70
2017-06-26T13:36:39.969Z,28.80
2017-06-26T13:39:08.282Z,28.80
2017-06-26T13:41:37.336Z,28.90
2017-06-26T13:44:05.697Z,28.90
2017-06-26T13:46:34.025Z,28.90
2017-06-26T13:49:02.343Z,28.80
2017-06-26T13:51:30.637Z,28.80
2017-06-26T13:53:58.962Z,28.90
2017-06-26T13:56:28.055Z,29.00
2017-06-26T13:58:57.110Z,28.80
2017-06-26T14:01:25.400Z,28.90
2017-06-26T14:03:53.753Z,28.80
2017-06-26T14:06:22.128Z,28.90
2017-06-26T14:08:50.458Z,28.80
2017-06-26T14:11:18.773Z,28.80
2017-06-26T14:13:47.065Z,28.70
2017-06-26T14:16:15.391Z,28.50
2017-06-26T14:18:43.676Z,28.50
2017-06-26T14:21:12.768Z,28.40
2017-06-26T14:23:41.821Z,28.40
2017-06-26T14:26:10.228Z,28.40
2017-06-26T14:28:38.553Z,28.40
2017-06-26T14:31:06.842Z,28.30
2017-06-26T14:33:35.132Z,28.30
2017-06-26T14:36:03.452Z,28.20
2017-06-26T14:38:32.506Z,28.20
2017-06-26T14:41:00.792Z,28.20
2017-06-26T14:43:29.118Z,28.20
2017-06-26T14:45:58.183Z,28.20
2017-06-26T14:48:26.626Z,28.20
2017-06-26T14:50:54.963Z,28.10
2017-06-26T14:53:24.018Z,28.00
2017-06-26T14:55:52.318Z,28.00
2017-06-26T14:58:20.650Z,27.90
2017-06-26T15:00:48.949Z,27.80
2017-06-26T15:03:17.240Z,27.80
2017-06-26T15:05:45.554Z,27.80
2017-06-26T15:08:14.632Z,27.80
2017-06-26T15:10:42.981Z,27.80
2017-06-26T15:13:11.269Z,27.70
2017-06-26T15:15:39.614Z,27.80
2017-06-26T15:18:07.897Z,27.80
2017-06-26T15:20:36.228Z,27.80
2017-06-26T15:23:05.281Z,27.80
2017-06-26T15:25:33.569Z,27.70
2017-06-26T15:28:01.898Z,27.70
2017-06-26T15:30:30.195Z,27.70
2017-06-26T15:32:58.479Z,27.70
2017-06-26T15:35:26.797Z,27.70
2017-06-26T15:37:55.121Z,27.70
2017-06-26T15:40:23.411Z,27.70
2017-06-26T15:42:51.700Z,27.70
2017-06-26T15:45:20.030Z,27.70
2017-06-26T15:47:49.089Z,27.60
2017-06-26T15:50:17.384Z,27.50
2017-06-26T15:52:46.477Z,27.50
2017-06-26T15:55:14.756Z,27.50
2017-06-26T15:57:43.816Z,27.50
2017-06-26T16:00:12.128Z,27.50
2017-06-26T16:02:41.181Z,27.50
2017-06-26T16:05:09.514Z,27.50
2017-06-26T16:07:38.570Z,27.30
2017-06-26T16:10:06.857Z,27.30
2017-06-26T16:12:35.182Z,27.30
2017-06-26T16:15:03.481Z,27.20
2017-06-26T16:17:31.784Z,27.20
2017-06-26T16:20:00.141Z,27.20
2017-06-26T16:22:28.523Z,27.10
2017-06-26T16:24:56.817Z,27.10
2017-06-26T16:27:25.141Z,27.00
2017-06-26T16:29:53.433Z,27.00
2017-06-26T16:32:21.716Z,26.90
2017-06-26T16:34:50.036Z,26.70
2017-06-26T16:37:18.318Z,26.70
2017-06-26T16:39:46.633Z,26.50
2017-06-26T16:42:14.965Z,26.50
2017-06-26T16:44:43.262Z,26.40
2017-06-26T16:47:12.318Z,26.30
2017-06-26T16:49:40.637Z,26.30
2017-06-26T16:52:09.697Z,26.30
2017-06-26T16:54:38.036Z,26.20
2017-06-26T16:57:06.317Z,26.30
2017-06-26T16:59:34.606Z,26.20
2017-06-26T17:02:02.940Z,26.20
2017-06-26T17:04:31.993Z,26.10
2017-06-26T17:07:00.276Z,26.10
2017-06-26T17:09:28.605Z,26.00
2017-06-26T17:11:56.935Z,26.10
2017-06-26T17:14:25.224Z,26.00
2017-06-26T17:16:53.535Z,26.00
2017-06-26T17:19:21.898Z,26.00
2017-06-26T17:21:50.187Z,26.00
2017-06-26T17:24:18.475Z,25.90
2017-06-26T17:26:46.784Z,25.90
2017-06-26T17:29:15.841Z,25.90
2017-06-26T17:31:44.173Z,25.90
2017-06-26T17:34:12.467Z,25.90
2017-06-26T17:36:40.757Z,25.90
2017-06-26T17:39:09.122Z,25.80
2017-06-26T17:41:37.441Z,25.80
2017-06-26T17:44:05.729Z,25.70
2017-06-26T17:46:34.062Z,25.70
2017-06-26T17:49:02.356Z,25.60
2017-06-26T17:51:30.655Z,25.60
2017-06-26T17:53:59.766Z,25.40
2017-06-26T17:56:28.301Z,25.40
2017-06-26T17:58:56.593Z,25.30
2017-06-26T18:01:24.923Z,25.20
2017-06-26T18:03:53.228Z,25.10
2017-06-26T18:06:21.521Z,25.00
2017-06-26T18:08:49.896Z,25.00
2017-06-26T18:11:18.953Z,24.90
2017-06-26T18:13:47.377Z,24.80
2017-06-26T18:16:15.704Z,24.90
2017-06-26T18:18:43.996Z,24.90
2017-06-26T18:21:12.295Z,24.90
2017-06-26T18:23:40.616Z,25.00
2017-06-26T18:26:08.913Z,25.00
2017-06-26T18:28:37.979Z,25.00
2017-06-26T18:31:06.314Z,24.90
2017-06-26T18:33:34.609Z,24.90
2017-06-26T18:36:02.901Z,24.80
2017-06-26T18:38:31.229Z,24.80
2017-06-26T18:41:00.276Z,24.60
2017-06-26T18:43:28.565Z,24.60
2017-06-26T18:45:56.901Z,24.50
2017-06-26T18:48:25.194Z,24.50
2017-06-26T18:50:53.496Z,24.50
2017-06-26T18:53:21.828Z,24.40
2017-06-26T18:55:50.118Z,24.30
2017-06-26T18:58:18.415Z,24.30
2017-06-26T19:00:46.734Z,24.20
2017-06-26T19:03:15.794Z,24.10
2017-06-26T19:05:44.077Z,24.10
2017-06-26T19:08:12.404Z,24.10
2017-06-26T19:10:40.698Z,24.00
2017-06-26T19:13:08.994Z,23.90
2017-06-26T19:15:37.333Z,23.80
2017-06-26T19:18:05.618Z,23.80
2017-06-26T19:20:33.918Z,23.70
2017-06-26T19:23:03.035Z,23.60
2017-06-26T19:25:31.327Z,23.50
2017-06-26T19:27:59.622Z,23.50
2017-06-26T19:30:27.952Z,23.50
2017-06-26T19:32:56.258Z,23.50
2017-06-26T19:35:24.590Z,23.40
2017-06-26T19:37:52.906Z,23.30
2017-06-26T19:40:21.195Z,23.30
2017-06-26T19:42:49.534Z,23.30
2017-06-26T19:45:17.839Z,23.30
2017-06-26T19:47:46.135Z,23.30
2017-06-26T19:50:14.458Z,23.20
2017-06-26T19:52:42.752Z,23.10
2017-06-26T19:55:11.056Z,23.10
2017-06-26T19:57:39.425Z,23.00
2017-06-26T20:00:07.717Z,22.90
2017-06-26T20:02:36.045Z,22.90
2017-06-26T20:05:04.366Z,22.90
2017-06-26T20:07:32.670Z,22.90
2017-06-26T20:10:00.958Z,22.90
2017-06-26T20:12:29.281Z,22.80
2017-06-26T20:14:57.570Z,22.70
2017-06-26T20:17:25.931Z,22.70
2017-06-26T20:19:55.023Z,22.50
2017-06-26T20:22:24.109Z,22.50
2017-06-26T20:24:52.401Z,22.50
2017-06-26T20:27:21.493Z,22.50
2017-06-26T20:29:49.780Z,22.40
2017-06-26T20:32:18.852Z,22.30
2017-06-26T20:34:47.190Z,22.30
2017-06-26T20:37:15.490Z,22.30
2017-06-26T20:39:43.781Z,22.20
2017-06-26T20:42:12.109Z,22.10
2017-06-26T20:44:40.389Z,22.00
2017-06-26T20:47:08.677Z,22.00
2017-06-26T20:49:37.010Z,21.90
2017-06-26T20:52:06.065Z,21.80
2017-06-26T20:54:34.354Z,21.80
2017-06-26T20:57:02.689Z,21.80
2017-06-26T20:59:31.000Z,21.80
2017-06-26T21:01:59.285Z,21.70
2017-06-26T21:04:27.608Z,21.70
2017-06-26T21:06:55.921Z,21.70
2017-06-26T21:09:24.222Z,21.70
2017-06-26T21:11:52.550Z,21.60
2017-06-26T21:14:20.834Z,21.60
2017-06-26T21:16:49.127Z,21.50
2017-06-26T21:19:18.228Z,21.50
2017-06-26T21:21:47.279Z,21.40
2017-06-26T21:24:15.573Z,21.40
2017-06-26T21:26:43.902Z,21.40
2017-06-26T21:29:12.196Z,21.40
2017-06-26T21:31:40.484Z,21.40
2017-06-26T21:34:09.580Z,21.40
2017-06-26T21:36:38.636Z,21.30
2017-06-26T21:39:06.929Z,21.30
2017-06-26T21:41:35.246Z,21.20
2017-06-26T21:44:03.540Z,21.20
2017-06-26T21:46:32.057Z,21.20
2017-06-26T21:49:00.353Z,21.10
2017-06-26T21:51:29.416Z,21.10
2017-06-26T21:53:57.764Z,21.10
2017-06-26T21:56:26.050Z,21.10
2017-06-26T21:58:54.351Z,21.10
2017-06-26T22:01:22.668Z,21.10
2017-06-26T22:03:51.733Z,20.90
2017-06-26T22:06:20.054Z,20.90
2017-06-26T22:08:49.114Z,20.80
2017-06-26T22:11:17.408Z,20.80
2017-06-26T22:13:45.745Z,20.80
2017-06-26T22:16:14.034Z,20.80
2017-06-26T22:18:42.317Z,20.80
2017-06-26T22:21:10.658Z,20.90
2017-06-26T22:23:38.977Z,20.90
2017-06-26T22:26:07.266Z,20.90
2017-06-26T22:28:35.580Z,21.00
2017-06-26T22:31:03.917Z,21.00
2017-06-26T22:33:32.207Z,21.00
2017-06-26T22:36:01.269Z,20.90
2017-06-26T22:38:29.605Z,20.90
2017-06-26T22:40:57.899Z,20.90
2017-06-26T22:43:26.212Z,20.80
2017-06-26T22:45:54.537Z,20.80
2017-06-26T22:48:22.850Z,20.70
2017-06-26T22:50:51.133Z,20.70
2017-06-26T22:53:19.523Z,20.70
2017-06-26T22:55:47.813Z,20.60
2017-06-26T22:58:16.096Z,20.60
2017-06-26T23:00:44.428Z,20.60
2017-06-26T23:03:12.708Z,20.60
2017-06-26T23:05:40.994Z,20.60
2017-06-26T23:08:09.317Z,20.50
2017-06-26T23:10:38.369Z,20.60
2017-06-26T23:13:06.653Z,20.60
2017-06-26T23:15:34.984Z,20.60
2017-06-26T23:18:03.277Z,20.60
2017-06-26T23:20:31.642Z,20.50
2017-06-26T23:22:59.961Z,20.50
2017-06-26T23:25:28.250Z,20.50
2017-06-26T23:27:56.576Z,20.40
2017-06-26T23:30:24.864Z,20.40
2017-06-26T23:32:53.181Z,20.30
2017-06-26T23:35:21.496Z,20.40
2017-06-26T23:37:50.625Z,20.40
2017-06-26T23:40:18.912Z,20.30
2017-06-26T23:42:47.205Z,20.40
2017-06-26T23:45:15.526Z,20.30
2017-06-26T23:47:43.822Z,20.20
2017-06-26T23:50:12.105Z,20.20
2017-06-26T23:52:40.421Z,20.20
2017-06-26T23:55:08.792Z,20.20
2017-06-26T23:57:37.085Z,20.20
